sensor_id;sensor_type;location;lat;lon;timestamp;temperature;humidity
36444;DHT22;24692;45.642;13.806;2023-02-10T00:01:47;2.00;99.90
36444;DHT22;24692;45.642;13.806;2023-02-10T00:04:13;2.10;99.90
36444;DHT22;24692;45.642;13.806;2023-02-10T00:06:39;2.00;99.90
36444;DHT22;24692;45.642;13.806;2023-02-10T00:09:06;2.10;99.90
36444;DHT22;24692;45.642;13.806;2023-02-10T00:11:31;2.20;99.90
36444;DHT22;24692;45.642;13.806;2023-02-10T00:14:17;2.10;99.90
36444;DHT22;24692;45.642;13.806;2023-02-10T00:16:44;2.10;99.90
36444;DHT22;24692;45.642;13.806;2023-02-10T00:19:09;2.10;99.90
36444;DHT22;24692;45.642;13.806;2023-02-10T00:21:35;2.00;99.90
36444;DHT22;24692;45.642;13.806;2023-02-10T00:24:01;2.00;99.90
36444;DHT22;24692;45.642;13.806;2023-02-10T00:26:26;2.10;99.90
36444;DHT22;24692;45.642;13.806;2023-02-10T00:28:52;2.30;99.90
36444;DHT22;24692;45.642;13.806;2023-02-10T00:31:18;2.30;99.90
36444;DHT22;24692;45.642;13.806;2023-02-10T00:33:47;2.40;99.90
36444;DHT22;24692;45.642;13.806;2023-02-10T00:36:13;2.40;99.90
36444;DHT22;24692;45.642;13.806;2023-02-10T00:38:41;2.40;99.90
36444;DHT22;24692;45.642;13.806;2023-02-10T00:41:15;2.40;99.90
36444;DHT22;24692;45.642;13.806;2023-02-10T00:43:42;2.30;99.90
36444;DHT22;24692;45.642;13.806;2023-02-10T00:46:10;2.20;99.90
36444;DHT22;24692;45.642;13.806;2023-02-10T00:48:35;2.30;99.90
36444;DHT22;24692;45.642;13.806;2023-02-10T00:51:02;2.30;99.90
36444;DHT22;24692;45.642;13.806;2023-02-10T00:53:28;2.10;99.90
36444;DHT22;24692;45.642;13.806;2023-02-10T00:55:53;2.00;99.90
36444;DHT22;24692;45.642;13.806;2023-02-10T00:58:20;1.90;99.90
36444;DHT22;24692;45.642;13.806;2023-02-10T01:00:47;2.00;99.90
36444;DHT22;24692;45.642;13.806;2023-02-10T01:03:13;1.90;99.90
36444;DHT22;24692;45.642;13.806;2023-02-10T01:05:39;1.90;99.90
36444;DHT22;24692;45.642;13.806;2023-02-10T01:08:05;1.90;99.90
36444;DHT22;24692;45.642;13.806;2023-02-10T01:10:32;1.80;99.90
36444;DHT22;24692;45.642;13.806;2023-02-10T01:13:03;1.70;99.90
36444;DHT22;24692;45.642;13.806;2023-02-10T01:15:30;1.70;99.90
36444;DHT22;24692;45.642;13.806;2023-02-10T01:17:56;1.70;99.90
36444;DHT22;24692;45.642;13.806;2023-02-10T01:20:22;1.80;99.90
36444;DHT22;24692;45.642;13.806;2023-02-10T01:22:48;1.80;99.90
36444;DHT22;24692;45.642;13.806;2023-02-10T01:25:14;1.90;99.90
36444;DHT22;24692;45.642;13.806;2023-02-10T01:27:40;1.80;99.90
36444;DHT22;24692;45.642;13.806;2023-02-10T01:30:06;1.80;99.90
36444;DHT22;24692;45.642;13.806;2023-02-10T01:32:31;1.80;99.90
36444;DHT22;24692;45.642;13.806;2023-02-10T01:34:57;1.80;99.90
36444;DHT22;24692;45.642;13.806;2023-02-10T01:37:23;1.70;99.90
36444;DHT22;24692;45.642;13.806;2023-02-10T01:39:48;1.70;99.90
36444;DHT22;24692;45.642;13.806;2023-02-10T01:42:15;1.50;99.90
36444;DHT22;24692;45.642;13.806;2023-02-10T01:47:07;1.30;99.90
36444;DHT22;24692;45.642;13.806;2023-02-10T01:49:40;1.20;99.90
36444;DHT22;24692;45.642;13.806;2023-02-10T01:52:20;1.20;99.90
36444;DHT22;24692;45.642;13.806;2023-02-10T01:54:54;1.20;99.90
36444;DHT22;24692;45.642;13.806;2023-02-10T01:57:20;1.20;99.90
36444;DHT22;24692;45.642;13.806;2023-02-10T01:59:47;1.40;99.90
36444;DHT22;24692;45.642;13.806;2023-02-10T02:02:14;1.40;99.90
36444;DHT22;24692;45.642;13.806;2023-02-10T02:04:50;1.50;99.90
36444;DHT22;24692;45.642;13.806;2023-02-10T02:07:17;1.60;99.90
36444;DHT22;24692;45.642;13.806;2023-02-10T02:09:44;1.80;99.90
36444;DHT22;24692;45.642;13.806;2023-02-10T02:12:26;1.70;99.90
36444;DHT22;24692;45.642;13.806;2023-02-10T02:15:01;1.80;99.90
36444;DHT22;24692;45.642;13.806;2023-02-10T02:17:42;1.90;99.90
36444;DHT22;24692;45.642;13.806;2023-02-10T02:37:16;1.60;99.90
36444;DHT22;24692;45.642;13.806;2023-02-10T02:39:43;1.50;99.90
36444;DHT22;24692;45.642;13.806;2023-02-10T02:42:20;1.50;99.90
36444;DHT22;24692;45.642;13.806;2023-02-10T02:44:54;1.60;99.90
36444;DHT22;24692;45.642;13.806;2023-02-10T02:47:50;1.50;99.90
36444;DHT22;24692;45.642;13.806;2023-02-10T02:53:59;1.60;99.90
36444;DHT22;24692;45.642;13.806;2023-02-10T02:56:49;1.40;99.90
36444;DHT22;24692;45.642;13.806;2023-02-10T02:59:22;1.30;99.90
36444;DHT22;24692;45.642;13.806;2023-02-10T03:01:57;1.30;99.90
36444;DHT22;24692;45.642;13.806;2023-02-10T03:04:28;1.30;99.90
36444;DHT22;24692;45.642;13.806;2023-02-10T03:06:54;1.30;99.90
36444;DHT22;24692;45.642;13.806;2023-02-10T03:09:20;1.40;99.90
36444;DHT22;24692;45.642;13.806;2023-02-10T03:11:46;1.60;99.90
36444;DHT22;24692;45.642;13.806;2023-02-10T03:14:11;1.50;99.90
36444;DHT22;24692;45.642;13.806;2023-02-10T03:16:37;1.50;99.90
36444;DHT22;24692;45.642;13.806;2023-02-10T03:19:03;1.60;99.90
36444;DHT22;24692;45.642;13.806;2023-02-10T03:21:28;1.60;99.90
36444;DHT22;24692;45.642;13.806;2023-02-10T03:23:54;1.60;99.90
36444;DHT22;24692;45.642;13.806;2023-02-10T03:26:20;1.70;99.90
36444;DHT22;24692;45.642;13.806;2023-02-10T03:28:46;1.70;99.90
36444;DHT22;24692;45.642;13.806;2023-02-10T03:31:11;1.70;99.90
36444;DHT22;24692;45.642;13.806;2023-02-10T03:33:37;1.70;99.90
36444;DHT22;24692;45.642;13.806;2023-02-10T03:36:03;1.60;99.90
36444;DHT22;24692;45.642;13.806;2023-02-10T03:38:29;1.60;99.90
36444;DHT22;24692;45.642;13.806;2023-02-10T03:40:55;1.60;99.90
36444;DHT22;24692;45.642;13.806;2023-02-10T03:43:21;1.50;99.90
36444;DHT22;24692;45.642;13.806;2023-02-10T03:45:47;1.60;99.90
36444;DHT22;24692;45.642;13.806;2023-02-10T03:48:13;1.60;99.90
36444;DHT22;24692;45.642;13.806;2023-02-10T03:50:41;1.60;99.90
36444;DHT22;24692;45.642;13.806;2023-02-10T03:53:07;1.60;99.90
36444;DHT22;24692;45.642;13.806;2023-02-10T03:55:33;1.70;99.90
36444;DHT22;24692;45.642;13.806;2023-02-10T03:58:00;1.70;99.90
36444;DHT22;24692;45.642;13.806;2023-02-10T04:00:26;1.60;99.90
36444;DHT22;24692;45.642;13.806;2023-02-10T04:02:52;1.70;99.90
36444;DHT22;24692;45.642;13.806;2023-02-10T04:05:17;1.70;99.90
36444;DHT22;24692;45.642;13.806;2023-02-10T04:07:43;1.70;99.90
36444;DHT22;24692;45.642;13.806;2023-02-10T04:10:09;1.70;99.90
36444;DHT22;24692;45.642;13.806;2023-02-10T04:12:35;1.80;99.90
36444;DHT22;24692;45.642;13.806;2023-02-10T04:15:01;1.90;99.90
36444;DHT22;24692;45.642;13.806;2023-02-10T04:17:26;1.90;99.90
36444;DHT22;24692;45.642;13.806;2023-02-10T04:19:52;1.80;99.90
36444;DHT22;24692;45.642;13.806;2023-02-10T04:22:17;1.80;99.90
36444;DHT22;24692;45.642;13.806;2023-02-10T04:24:43;1.80;99.90
36444;DHT22;24692;45.642;13.806;2023-02-10T04:27:09;1.90;99.90
36444;DHT22;24692;45.642;13.806;2023-02-10T04:29:34;1.90;99.90
36444;DHT22;24692;45.642;13.806;2023-02-10T04:32:05;1.90;99.90
36444;DHT22;24692;45.642;13.806;2023-02-10T04:34:31;1.90;99.90
36444;DHT22;24692;45.642;13.806;2023-02-10T04:36:56;2.00;99.90
36444;DHT22;24692;45.642;13.806;2023-02-10T04:39:22;2.00;99.90
36444;DHT22;24692;45.642;13.806;2023-02-10T04:41:48;2.00;99.90
36444;DHT22;24692;45.642;13.806;2023-02-10T04:44:13;2.00;99.90
36444;DHT22;24692;45.642;13.806;2023-02-10T04:46:39;2.00;99.90
36444;DHT22;24692;45.642;13.806;2023-02-10T04:49:05;1.90;99.90
36444;DHT22;24692;45.642;13.806;2023-02-10T04:51:30;1.90;99.90
36444;DHT22;24692;45.642;13.806;2023-02-10T04:53:56;1.90;99.90
36444;DHT22;24692;45.642;13.806;2023-02-10T04:56:22;1.80;99.90
36444;DHT22;24692;45.642;13.806;2023-02-10T04:58:47;1.80;99.90
36444;DHT22;24692;45.642;13.806;2023-02-10T05:01:13;1.70;99.90
36444;DHT22;24692;45.642;13.806;2023-02-10T05:03:39;1.60;99.90
36444;DHT22;24692;45.642;13.806;2023-02-10T05:06:09;1.60;99.90
36444;DHT22;24692;45.642;13.806;2023-02-10T05:08:35;1.60;99.90
36444;DHT22;24692;45.642;13.806;2023-02-10T05:11:06;1.50;99.90
36444;DHT22;24692;45.642;13.806;2023-02-10T05:13:32;1.60;99.90
36444;DHT22;24692;45.642;13.806;2023-02-10T05:15:57;1.50;99.90
36444;DHT22;24692;45.642;13.806;2023-02-10T05:18:23;1.60;99.90
36444;DHT22;24692;45.642;13.806;2023-02-10T05:20:49;1.60;99.90
36444;DHT22;24692;45.642;13.806;2023-02-10T05:23:14;1.60;99.90
36444;DHT22;24692;45.642;13.806;2023-02-10T05:25:40;1.80;99.90
36444;DHT22;24692;45.642;13.806;2023-02-10T05:28:05;1.90;99.90
36444;DHT22;24692;45.642;13.806;2023-02-10T05:30:32;2.00;99.90
36444;DHT22;24692;45.642;13.806;2023-02-10T05:32:57;1.90;99.90
36444;DHT22;24692;45.642;13.806;2023-02-10T05:35:23;1.90;99.90
36444;DHT22;24692;45.642;13.806;2023-02-10T05:37:49;2.00;99.90
36444;DHT22;24692;45.642;13.806;2023-02-10T05:40:15;2.00;99.90
36444;DHT22;24692;45.642;13.806;2023-02-10T05:42:40;1.90;99.90
36444;DHT22;24692;45.642;13.806;2023-02-10T05:45:06;2.00;99.90
36444;DHT22;24692;45.642;13.806;2023-02-10T05:47:32;2.20;99.90
36444;DHT22;24692;45.642;13.806;2023-02-10T05:49:58;2.20;99.90
36444;DHT22;24692;45.642;13.806;2023-02-10T05:52:23;2.20;99.90
36444;DHT22;24692;45.642;13.806;2023-02-10T05:54:49;2.20;99.90
36444;DHT22;24692;45.642;13.806;2023-02-10T05:57:15;2.10;99.90
36444;DHT22;24692;45.642;13.806;2023-02-10T05:59:40;2.10;99.90
36444;DHT22;24692;45.642;13.806;2023-02-10T06:02:07;2.20;99.90
36444;DHT22;24692;45.642;13.806;2023-02-10T06:04:33;2.00;99.90
36444;DHT22;24692;45.642;13.806;2023-02-10T06:06:59;1.90;99.90
36444;DHT22;24692;45.642;13.806;2023-02-10T06:09:25;1.90;99.90
36444;DHT22;24692;45.642;13.806;2023-02-10T06:11:51;2.00;99.90
36444;DHT22;24692;45.642;13.806;2023-02-10T06:14:17;2.10;99.90
36444;DHT22;24692;45.642;13.806;2023-02-10T06:16:43;2.40;99.90
36444;DHT22;24692;45.642;13.806;2023-02-10T06:19:10;2.30;99.90
36444;DHT22;24692;45.642;13.806;2023-02-10T06:21:35;2.40;99.90
36444;DHT22;24692;45.642;13.806;2023-02-10T06:24:01;2.60;99.90
36444;DHT22;24692;45.642;13.806;2023-02-10T06:26:27;2.70;99.90
36444;DHT22;24692;45.642;13.806;2023-02-10T06:28:54;2.70;99.90
36444;DHT22;24692;45.642;13.806;2023-02-10T06:31:19;2.70;99.90
36444;DHT22;24692;45.642;13.806;2023-02-10T06:33:45;2.90;99.90
36444;DHT22;24692;45.642;13.806;2023-02-10T06:36:11;3.00;99.90
36444;DHT22;24692;45.642;13.806;2023-02-10T06:38:37;3.10;99.90
36444;DHT22;24692;45.642;13.806;2023-02-10T06:41:03;3.20;99.90
36444;DHT22;24692;45.642;13.806;2023-02-10T06:43:29;3.10;99.90
36444;DHT22;24692;45.642;13.806;2023-02-10T06:45:55;2.90;99.90
36444;DHT22;24692;45.642;13.806;2023-02-10T06:48:21;2.70;99.90
36444;DHT22;24692;45.642;13.806;2023-02-10T06:50:47;2.70;99.90
36444;DHT22;24692;45.642;13.806;2023-02-10T06:53:12;2.50;99.90
36444;DHT22;24692;45.642;13.806;2023-02-10T06:55:38;2.80;99.90
36444;DHT22;24692;45.642;13.806;2023-02-10T06:58:04;3.40;99.90
36444;DHT22;24692;45.642;13.806;2023-02-10T07:00:30;4.30;99.90
36444;DHT22;24692;45.642;13.806;2023-02-10T07:02:58;5.20;99.90
36444;DHT22;24692;45.642;13.806;2023-02-10T07:05:24;5.70;99.70
36444;DHT22;24692;45.642;13.806;2023-02-10T07:07:50;6.50;99.10
36444;DHT22;24692;45.642;13.806;2023-02-10T07:10:17;6.90;97.00
36444;DHT22;24692;45.642;13.806;2023-02-10T07:12:43;7.20;96.50
36444;DHT22;24692;45.642;13.806;2023-02-10T07:15:09;7.60;95.70
36444;DHT22;24692;45.642;13.806;2023-02-10T07:17:36;8.10;95.30
36444;DHT22;24692;45.642;13.806;2023-02-10T07:20:03;8.10;93.80
36444;DHT22;24692;45.642;13.806;2023-02-10T07:22:29;7.80;94.00
36444;DHT22;24692;45.642;13.806;2023-02-10T07:24:55;7.20;94.10
36444;DHT22;24692;45.642;13.806;2023-02-10T07:27:23;6.80;94.60
36444;DHT22;24692;45.642;13.806;2023-02-10T07:29:48;7.60;94.00
36444;DHT22;24692;45.642;13.806;2023-02-10T07:32:14;8.10;93.10
36444;DHT22;24692;45.642;13.806;2023-02-10T07:34:40;8.30;92.00
36444;DHT22;24692;45.642;13.806;2023-02-10T07:37:07;8.40;92.40
36444;DHT22;24692;45.642;13.806;2023-02-10T07:39:33;10.40;99.90
36444;DHT22;24692;45.642;13.806;2023-02-10T07:41:58;13.00;94.80
36444;DHT22;24692;45.642;13.806;2023-02-10T07:44:24;14.30;96.60
36444;DHT22;24692;45.642;13.806;2023-02-10T07:46:53;13.90;85.20
36444;DHT22;24692;45.642;13.806;2023-02-10T07:49:19;13.80;89.20
36444;DHT22;24692;45.642;13.806;2023-02-10T07:51:45;14.00;95.20
36444;DHT22;24692;45.642;13.806;2023-02-10T07:54:11;15.00;88.20
36444;DHT22;24692;45.642;13.806;2023-02-10T07:56:37;15.00;90.70
36444;DHT22;24692;45.642;13.806;2023-02-10T07:59:02;15.60;95.10
36444;DHT22;24692;45.642;13.806;2023-02-10T08:01:28;14.90;81.30
36444;DHT22;24692;45.642;13.806;2023-02-10T08:03:54;14.50;83.80
36444;DHT22;24692;45.642;13.806;2023-02-10T08:06:21;14.50;89.90
36444;DHT22;24692;45.642;13.806;2023-02-10T08:08:48;14.70;79.50
36444;DHT22;24692;45.642;13.806;2023-02-10T08:11:14;14.30;79.30
36444;DHT22;24692;45.642;13.806;2023-02-10T08:13:40;14.80;83.70
36444;DHT22;24692;45.642;13.806;2023-02-10T08:16:06;14.30;80.20
36444;DHT22;24692;45.642;13.806;2023-02-10T08:18:34;14.20;79.40
36444;DHT22;24692;45.642;13.806;2023-02-10T08:21:00;13.60;77.60
36444;DHT22;24692;45.642;13.806;2023-02-10T08:23:26;13.80;77.90
36444;DHT22;24692;45.642;13.806;2023-02-10T08:25:52;14.10;77.50
36444;DHT22;24692;45.642;13.806;2023-02-10T08:28:18;14.90;77.00
36444;DHT22;24692;45.642;13.806;2023-02-10T08:30:44;15.30;75.30
36444;DHT22;24692;45.642;13.806;2023-02-10T08:33:09;15.70;73.80
36444;DHT22;24692;45.642;13.806;2023-02-10T08:35:39;15.10;73.90
36444;DHT22;24692;45.642;13.806;2023-02-10T08:38:05;14.70;74.70
36444;DHT22;24692;45.642;13.806;2023-02-10T08:40:32;15.30;73.30
36444;DHT22;24692;45.642;13.806;2023-02-10T08:42:58;15.60;72.10
36444;DHT22;24692;45.642;13.806;2023-02-10T08:45:24;15.60;72.10
36444;DHT22;24692;45.642;13.806;2023-02-10T08:47:49;15.80;71.60
36444;DHT22;24692;45.642;13.806;2023-02-10T08:50:15;15.70;79.40
36444;DHT22;24692;45.642;13.806;2023-02-10T08:52:41;17.30;70.30
36444;DHT22;24692;45.642;13.806;2023-02-10T08:55:07;16.90;78.80
36444;DHT22;24692;45.642;13.806;2023-02-10T08:57:35;17.80;80.00
36444;DHT22;24692;45.642;13.806;2023-02-10T09:00:03;16.90;70.70
36444;DHT22;24692;45.642;13.806;2023-02-10T09:02:32;18.00;71.50
36444;DHT22;24692;45.642;13.806;2023-02-10T09:04:57;18.30;77.80
36444;DHT22;24692;45.642;13.806;2023-02-10T09:07:23;17.60;70.70
36444;DHT22;24692;45.642;13.806;2023-02-10T09:09:49;17.60;71.50
36444;DHT22;24692;45.642;13.806;2023-02-10T09:12:16;16.80;67.10
36444;DHT22;24692;45.642;13.806;2023-02-10T09:14:42;17.30;68.50
36444;DHT22;24692;45.642;13.806;2023-02-10T09:17:10;17.00;70.20
36444;DHT22;24692;45.642;13.806;2023-02-10T09:19:36;17.10;74.30
36444;DHT22;24692;45.642;13.806;2023-02-10T09:22:03;18.30;67.90
36444;DHT22;24692;45.642;13.806;2023-02-10T09:24:29;18.90;68.40
36444;DHT22;24692;45.642;13.806;2023-02-10T09:26:55;18.30;68.10
36444;DHT22;24692;45.642;13.806;2023-02-10T09:29:20;17.10;63.90
36444;DHT22;24692;45.642;13.806;2023-02-10T09:31:46;16.40;66.00
36444;DHT22;24692;45.642;13.806;2023-02-10T09:34:12;15.30;68.20
36444;DHT22;24692;45.642;13.806;2023-02-10T09:36:38;15.60;68.30
36444;DHT22;24692;45.642;13.806;2023-02-10T09:39:03;16.20;68.60
36444;DHT22;24692;45.642;13.806;2023-02-10T09:41:39;16.80;67.30
36444;DHT22;24692;45.642;13.806;2023-02-10T09:54:16;17.80;65.90
36444;DHT22;24692;45.642;13.806;2023-02-10T09:56:43;17.90;64.70
36444;DHT22;24692;45.642;13.806;2023-02-10T09:59:14;17.10;65.10
36444;DHT22;24692;45.642;13.806;2023-02-10T10:01:50;17.00;65.60
36444;DHT22;24692;45.642;13.806;2023-02-10T10:04:18;17.50;64.30
36444;DHT22;24692;45.642;13.806;2023-02-10T10:06:53;17.20;64.80
36444;DHT22;24692;45.642;13.806;2023-02-10T10:09:37;16.80;64.00
36444;DHT22;24692;45.642;13.806;2023-02-10T10:12:10;17.50;64.70
36444;DHT22;24692;45.642;13.806;2023-02-10T10:14:40;18.00;61.50
36444;DHT22;24692;45.642;13.806;2023-02-10T10:30:11;19.10;61.60
36444;DHT22;24692;45.642;13.806;2023-02-10T10:32:47;18.40;60.70
36444;DHT22;24692;45.642;13.806;2023-02-10T10:35:20;17.90;60.00
36444;DHT22;24692;45.642;13.806;2023-02-10T10:37:47;17.20;62.00
36444;DHT22;24692;45.642;13.806;2023-02-10T10:40:29;18.50;63.10
36444;DHT22;24692;45.642;13.806;2023-02-10T10:42:58;19.10;61.50
36444;DHT22;24692;45.642;13.806;2023-02-10T10:45:27;19.20;60.60
36444;DHT22;24692;45.642;13.806;2023-02-10T10:50:40;18.00;64.20
36444;DHT22;24692;45.642;13.806;2023-02-10T10:53:20;18.40;60.60
36444;DHT22;24692;45.642;13.806;2023-02-10T10:55:51;19.30;61.80
36444;DHT22;24692;45.642;13.806;2023-02-10T10:58:40;20.00;60.50
36444;DHT22;24692;45.642;13.806;2023-02-10T11:01:08;20.00;62.40
36444;DHT22;24692;45.642;13.806;2023-02-10T11:03:34;19.80;64.50
36444;DHT22;24692;45.642;13.806;2023-02-10T11:06:04;19.40;60.80
36444;DHT22;24692;45.642;13.806;2023-02-10T11:11:05;18.80;61.60
36444;DHT22;24692;45.642;13.806;2023-02-10T11:13:38;20.00;61.00
36444;DHT22;24692;45.642;13.806;2023-02-10T11:16:08;19.00;59.40
36444;DHT22;24692;45.642;13.806;2023-02-10T11:18:35;19.50;65.60
36444;DHT22;24692;45.642;13.806;2023-02-10T11:21:09;21.50;61.00
36444;DHT22;24692;45.642;13.806;2023-02-10T11:23:56;20.70;57.60
36444;DHT22;24692;45.642;13.806;2023-02-10T11:26:26;21.00;64.40
36444;DHT22;24692;45.642;13.806;2023-02-10T11:28:53;21.90;59.60
36444;DHT22;24692;45.642;13.806;2023-02-10T11:36:47;20.50;63.10
36444;DHT22;24692;45.642;13.806;2023-02-10T11:39:20;20.60;59.70
36444;DHT22;24692;45.642;13.806;2023-02-10T11:41:48;21.10;62.60
36444;DHT22;24692;45.642;13.806;2023-02-10T11:47:05;20.10;59.00
36444;DHT22;24692;45.642;13.806;2023-02-10T11:49:43;18.70;60.40
36444;DHT22;24692;45.642;13.806;2023-02-10T11:52:20;18.30;60.80
36444;DHT22;24692;45.642;13.806;2023-02-10T11:54:49;17.70;60.20
36444;DHT22;24692;45.642;13.806;2023-02-10T11:57:41;17.50;60.30
36444;DHT22;24692;45.642;13.806;2023-02-10T12:00:38;17.70;66.80
36444;DHT22;24692;45.642;13.806;2023-02-10T12:08:36;19.00;61.00
36444;DHT22;24692;45.642;13.806;2023-02-10T12:11:13;18.60;60.40
36444;DHT22;24692;45.642;13.806;2023-02-10T12:19:32;20.40;65.30
36444;DHT22;24692;45.642;13.806;2023-02-10T12:41:42;17.30;58.30
36444;DHT22;24692;45.642;13.806;2023-02-10T12:52:59;16.30;61.20
36444;DHT22;24692;45.642;13.806;2023-02-10T12:58:30;18.00;58.90
36444;DHT22;24692;45.642;13.806;2023-02-10T13:01:13;18.50;58.40
36444;DHT22;24692;45.642;13.806;2023-02-10T13:03:43;19.50;57.90
36444;DHT22;24692;45.642;13.806;2023-02-10T13:06:40;19.40;57.30
36444;DHT22;24692;45.642;13.806;2023-02-10T13:09:34;19.80;56.00
36444;DHT22;24692;45.642;13.806;2023-02-10T13:12:15;19.90;56.40
36444;DHT22;24692;45.642;13.806;2023-02-10T13:14:45;19.30;56.90
36444;DHT22;24692;45.642;13.806;2023-02-10T13:17:12;18.50;57.50
36444;DHT22;24692;45.642;13.806;2023-02-10T13:30:18;19.50;57.50
36444;DHT22;24692;45.642;13.806;2023-02-10T13:35:37;19.90;57.60
36444;DHT22;24692;45.642;13.806;2023-02-10T13:38:14;20.70;56.90
36444;DHT22;24692;45.642;13.806;2023-02-10T13:40:55;20.80;56.20
36444;DHT22;24692;45.642;13.806;2023-02-10T13:43:55;20.50;55.80
36444;DHT22;24692;45.642;13.806;2023-02-10T13:46:27;20.50;55.80
36444;DHT22;24692;45.642;13.806;2023-02-10T13:48:54;20.10;55.40
36444;DHT22;24692;45.642;13.806;2023-02-10T13:51:33;19.70;56.00
36444;DHT22;24692;45.642;13.806;2023-02-10T13:53:59;19.70;57.00
36444;DHT22;24692;45.642;13.806;2023-02-10T13:56:30;20.20;56.20
36444;DHT22;24692;45.642;13.806;2023-02-10T13:59:04;20.10;56.60
36444;DHT22;24692;45.642;13.806;2023-02-10T14:01:42;19.20;57.20
36444;DHT22;24692;45.642;13.806;2023-02-10T14:06:44;17.70;58.50
36444;DHT22;24692;45.642;13.806;2023-02-10T14:11:58;18.90;58.10
36444;DHT22;24692;45.642;13.806;2023-02-10T14:14:30;19.00;57.90
36444;DHT22;24692;45.642;13.806;2023-02-10T14:19:41;17.60;58.40
36444;DHT22;24692;45.642;13.806;2023-02-10T14:22:25;17.50;59.00
36444;DHT22;24692;45.642;13.806;2023-02-10T14:24:51;17.20;59.90
36444;DHT22;24692;45.642;13.806;2023-02-10T14:27:20;16.70;59.70
36444;DHT22;24692;45.642;13.806;2023-02-10T14:29:50;16.90;59.00
36444;DHT22;24692;45.642;13.806;2023-02-10T14:32:16;16.90;60.00
36444;DHT22;24692;45.642;13.806;2023-02-10T14:34:53;17.60;59.50
36444;DHT22;24692;45.642;13.806;2023-02-10T14:37:20;17.50;59.20
36444;DHT22;24692;45.642;13.806;2023-02-10T14:39:52;17.20;59.90
36444;DHT22;24692;45.642;13.806;2023-02-10T14:42:19;17.60;59.50
36444;DHT22;24692;45.642;13.806;2023-02-10T14:44:49;18.00;59.20
36444;DHT22;24692;45.642;13.806;2023-02-10T14:49:52;17.50;59.30
36444;DHT22;24692;45.642;13.806;2023-02-10T14:54:47;18.00;59.20
36444;DHT22;24692;45.642;13.806;2023-02-10T14:57:16;18.10;59.00
36444;DHT22;24692;45.642;13.806;2023-02-10T14:59:43;18.00;58.20
36444;DHT22;24692;45.642;13.806;2023-02-10T15:02:20;17.80;58.20
36444;DHT22;24692;45.642;13.806;2023-02-10T15:04:49;17.80;59.40
36444;DHT22;24692;45.642;13.806;2023-02-10T15:07:39;18.00;58.90
36444;DHT22;24692;45.642;13.806;2023-02-10T15:12:49;17.60;58.30
36444;DHT22;24692;45.642;13.806;2023-02-10T15:15:32;17.40;59.00
36444;DHT22;24692;45.642;13.806;2023-02-10T15:18:13;17.40;59.30
36444;DHT22;24692;45.642;13.806;2023-02-10T15:20:55;16.80;59.50
36444;DHT22;24692;45.642;13.806;2023-02-10T15:23:21;16.90;60.30
36444;DHT22;24692;45.642;13.806;2023-02-10T15:25:59;16.50;60.20
36444;DHT22;24692;45.642;13.806;2023-02-10T15:28:27;16.10;60.80
36444;DHT22;24692;45.642;13.806;2023-02-10T15:33:31;15.80;62.70
36444;DHT22;24692;45.642;13.806;2023-02-10T15:41:43;15.50;62.70
36444;DHT22;24692;45.642;13.806;2023-02-10T15:46:49;14.80;63.60
36444;DHT22;24692;45.642;13.806;2023-02-10T15:49:17;14.90;63.60
36444;DHT22;24692;45.642;13.806;2023-02-10T15:51:49;14.50;64.10
36444;DHT22;24692;45.642;13.806;2023-02-10T15:54:19;13.90;64.50
36444;DHT22;24692;45.642;13.806;2023-02-10T15:56:56;13.70;64.40
36444;DHT22;24692;45.642;13.806;2023-02-10T15:59:23;13.20;65.00
36444;DHT22;24692;45.642;13.806;2023-02-10T16:02:01;13.00;66.00
36444;DHT22;24692;45.642;13.806;2023-02-10T16:04:27;12.80;66.80
36444;DHT22;24692;45.642;13.806;2023-02-10T16:06:59;12.60;66.90
36444;DHT22;24692;45.642;13.806;2023-02-10T16:09:25;12.50;67.60
36444;DHT22;24692;45.642;13.806;2023-02-10T16:11:51;12.30;67.60
36444;DHT22;24692;45.642;13.806;2023-02-10T16:14:16;12.00;68.40
36444;DHT22;24692;45.642;13.806;2023-02-10T16:16:45;11.80;69.40
36444;DHT22;24692;45.642;13.806;2023-02-10T16:19:14;11.60;69.70
36444;DHT22;24692;45.642;13.806;2023-02-10T16:21:41;11.30;71.20
36444;DHT22;24692;45.642;13.806;2023-02-10T16:24:17;10.70;71.70
36444;DHT22;24692;45.642;13.806;2023-02-10T16:26:43;10.10;72.40
36444;DHT22;24692;45.642;13.806;2023-02-10T16:31:42;9.10;75.70
36444;DHT22;24692;45.642;13.806;2023-02-10T16:34:09;8.80;76.00
36444;DHT22;24692;45.642;13.806;2023-02-10T16:36:35;8.70;76.30
36444;DHT22;24692;45.642;13.806;2023-02-10T16:39:00;8.50;77.10
36444;DHT22;24692;45.642;13.806;2023-02-10T16:41:26;8.20;77.20
36444;DHT22;24692;45.642;13.806;2023-02-10T16:43:52;8.10;77.80
36444;DHT22;24692;45.642;13.806;2023-02-10T16:46:18;8.10;78.10
36444;DHT22;24692;45.642;13.806;2023-02-10T16:48:45;8.10;78.00
36444;DHT22;24692;45.642;13.806;2023-02-10T16:51:11;8.10;78.30
36444;DHT22;24692;45.642;13.806;2023-02-10T16:53:37;8.10;78.20
36444;DHT22;24692;45.642;13.806;2023-02-10T16:56:03;8.00;78.00
36444;DHT22;24692;45.642;13.806;2023-02-10T16:58:30;8.00;77.70
36444;DHT22;24692;45.642;13.806;2023-02-10T17:00:56;7.90;78.20
36444;DHT22;24692;45.642;13.806;2023-02-10T17:03:22;7.90;78.40
36444;DHT22;24692;45.642;13.806;2023-02-10T17:05:48;7.90;78.20
36444;DHT22;24692;45.642;13.806;2023-02-10T17:08:14;7.80;78.30
36444;DHT22;24692;45.642;13.806;2023-02-10T17:10:40;7.80;78.80
36444;DHT22;24692;45.642;13.806;2023-02-10T17:13:06;7.80;78.30
36444;DHT22;24692;45.642;13.806;2023-02-10T17:15:33;7.70;78.50
36444;DHT22;24692;45.642;13.806;2023-02-10T17:17:58;7.60;79.00
36444;DHT22;24692;45.642;13.806;2023-02-10T17:20:32;7.70;78.80
36444;DHT22;24692;45.642;13.806;2023-02-10T17:22:59;7.60;80.40
36444;DHT22;24692;45.642;13.806;2023-02-10T17:25:28;7.60;79.90
36444;DHT22;24692;45.642;13.806;2023-02-10T17:27:54;7.60;79.50
36444;DHT22;24692;45.642;13.806;2023-02-10T17:30:22;7.50;80.00
36444;DHT22;24692;45.642;13.806;2023-02-10T17:32:49;7.20;79.80
36444;DHT22;24692;45.642;13.806;2023-02-10T17:35:18;7.10;80.60
36444;DHT22;24692;45.642;13.806;2023-02-10T17:37:45;7.00;80.60
36444;DHT22;24692;45.642;13.806;2023-02-10T17:40:14;7.00;80.80
36444;DHT22;24692;45.642;13.806;2023-02-10T17:42:40;6.90;80.70
36444;DHT22;24692;45.642;13.806;2023-02-10T17:45:06;7.00;82.30
36444;DHT22;24692;45.642;13.806;2023-02-10T17:47:32;7.00;81.50
36444;DHT22;24692;45.642;13.806;2023-02-10T17:49:57;6.90;82.20
36444;DHT22;24692;45.642;13.806;2023-02-10T17:52:23;6.70;82.60
36444;DHT22;24692;45.642;13.806;2023-02-10T17:54:48;6.80;81.90
36444;DHT22;24692;45.642;13.806;2023-02-10T17:57:14;6.80;82.10
36444;DHT22;24692;45.642;13.806;2023-02-10T17:59:41;6.60;82.60